Time;durP1;ratioP1;P1;durP2;ratioP2;P2;SDS_P1;SDS_P2;PMS_P1;PMS_P2;Temp;Humidity;BMP_temperature;BMP_pressure;BME280_temperature;BME280_humidity;BME280_pressure;Samples;Min_cycle;Max_cycle;Signal;HPM_P1;HPM_P2
2023/06/13 00:00:38;;;;;;;3.35;1.90;;;27.90;29.80;;;;;;5052023;28;20180;-60
2023/06/13 00:03:04;;;;;;;2.95;2.13;;;27.90;29.80;;;;;;5051905;28;20420;-64
2023/06/13 00:05:31;;;;;;;2.13;1.92;;;27.90;29.90;;;;;;5050753;28;20044;-63
2023/06/13 00:07:57;;;;;;;2.08;1.60;;;27.90;29.90;;;;;;5027466;28;20089;-68
2023/06/13 00:10:23;;;;;;;2.00;1.80;;;27.90;29.90;;;;;;5031636;28;20077;-66
2023/06/13 00:12:51;;;;;;;2.13;1.80;;;27.80;29.90;;;;;;5032123;28;20056;-66
2023/06/13 00:15:18;;;;;;;3.63;2.00;;;27.80;29.90;;;;;;5047608;28;20060;-66
2023/06/13 00:17:48;;;;;;;2.75;2.08;;;27.80;29.90;;;;;;5044157;28;20107;-65
2023/06/13 00:20:13;;;;;;;2.90;2.00;;;27.80;29.90;;;;;;5044025;28;20106;-66
2023/06/13 00:22:39;;;;;;;3.13;1.95;;;27.80;29.90;;;;;;5028658;28;20426;-65
2023/06/13 00:25:05;;;;;;;2.00;1.80;;;27.80;29.90;;;;;;5051228;28;20029;-62
2023/06/13 00:27:32;;;;;;;3.95;2.05;;;27.80;29.90;;;;;;5045963;28;20108;-65
2023/06/13 00:29:58;;;;;;;2.45;1.70;;;27.80;29.90;;;;;;5028729;28;20033;-64
2023/06/13 00:32:26;;;;;;;2.20;1.90;;;27.80;29.90;;;;;;5033211;28;20516;-65
2023/06/13 00:34:56;;;;;;;2.47;1.92;;;27.80;29.90;;;;;;5006382;28;20128;-66
2023/06/13 00:37:22;;;;;;;2.25;1.83;;;27.80;30.00;;;;;;5031454;28;20058;-66
2023/06/13 00:39:48;;;;;;;3.13;2.33;;;27.80;30.00;;;;;;5013818;28;20038;-62
2023/06/13 00:42:15;;;;;;;2.38;2.10;;;27.80;30.00;;;;;;5013331;28;20066;-65
2023/06/13 00:44:41;;;;;;;2.30;1.70;;;27.80;30.00;;;;;;5030905;28;20431;-65
2023/06/13 00:47:13;;;;;;;2.75;1.90;;;27.70;30.00;;;;;;5007207;28;20432;-63
2023/06/13 00:49:41;;;;;;;3.58;2.33;;;27.70;30.00;;;;;;5016619;28;20175;-64
2023/06/13 00:52:08;;;;;;;3.88;2.50;;;27.70;30.00;;;;;;5031091;28;20218;-63
2023/06/13 00:54:37;;;;;;;2.05;1.83;;;27.70;30.00;;;;;;5031113;28;20026;-65
2023/06/13 00:57:06;;;;;;;3.42;2.03;;;27.70;30.00;;;;;;5031049;28;20361;-63
2023/06/13 00:59:32;;;;;;;2.40;1.95;;;27.70;30.00;;;;;;5036752;28;20028;-67
2023/06/13 01:02:00;;;;;;;2.35;2.05;;;27.60;30.00;;;;;;5033029;28;20080;-65
2023/06/13 01:04:27;;;;;;;2.50;2.10;;;27.60;30.00;;;;;;5044596;28;20124;-66
2023/06/13 01:06:53;;;;;;;2.10;1.90;;;27.60;30.00;;;;;;5005890;28;20146;-66
2023/06/13 01:09:19;;;;;;;2.10;1.88;;;27.60;30.00;;;;;;5022394;28;20051;-62
2023/06/13 01:12:11;;;;;;;2.40;2.20;;;27.60;30.00;;;;;;5023733;28;20294;-66
2023/06/13 01:15:07;;;;;;;3.33;2.00;;;27.60;30.00;;;;;;5023430;28;20116;-63
2023/06/13 01:17:41;;;;;;;2.75;2.00;;;27.60;30.00;;;;;;5014054;28;20033;-63
2023/06/13 01:20:14;;;;;;;2.10;1.80;;;27.60;30.00;;;;;;5038773;28;20163;-64
2023/06/13 01:22:45;;;;;;;2.97;2.20;;;27.60;30.00;;;;;;5046594;28;21136;-62
2023/06/13 01:25:37;;;;;;;2.85;2.00;;;27.50;30.00;;;;;;5029593;28;20033;-65
2023/06/13 01:28:06;;;;;;;3.08;2.30;;;27.50;30.00;;;;;;5050873;28;20420;-65
2023/06/13 01:30:34;;;;;;;2.67;1.83;;;27.50;30.10;;;;;;5038334;28;20052;-67
2023/06/13 01:33:02;;;;;;;4.07;2.00;;;27.50;30.10;;;;;;5027941;28;20028;-65
2023/06/13 01:35:30;;;;;;;2.78;2.20;;;27.50;30.30;;;;;;5050632;28;20033;-65
2023/06/13 01:37:56;;;;;;;2.88;2.08;;;27.50;30.20;;;;;;5029989;28;20075;-63
2023/06/13 01:40:22;;;;;;;2.35;2.13;;;27.50;30.20;;;;;;5045667;28;20041;-64
2023/06/13 01:42:48;;;;;;;2.47;1.98;;;27.40;30.10;;;;;;5037267;28;20444;-64
2023/06/13 01:45:15;;;;;;;2.08;1.80;;;27.50;30.20;;;;;;5030575;28;20029;-64
2023/06/13 01:47:54;;;;;;;2.70;1.98;;;27.40;30.20;;;;;;5012227;28;20107;-62
2023/06/13 01:50:48;;;;;;;3.47;2.10;;;27.40;30.20;;;;;;5030656;28;20044;-64
2023/06/13 01:53:36;;;;;;;2.72;2.30;;;27.40;30.20;;;;;;5030673;28;20033;-66
2023/06/13 01:56:08;;;;;;;2.95;1.98;;;27.40;30.20;;;;;;5014487;28;20114;-64
2023/06/13 01:58:43;;;;;;;4.53;1.85;;;27.40;30.20;;;;;;5040647;28;20112;-63
2023/06/13 02:01:13;;;;;;;2.50;2.00;;;27.40;30.30;;;;;;5026170;28;20025;-65
2023/06/13 02:03:40;;;;;;;2.38;2.03;;;27.40;30.30;;;;;;5031098;28;20124;-63
2023/06/13 02:06:06;;;;;;;2.03;1.83;;;27.40;30.30;;;;;;5027272;28;20064;-64
2023/06/13 02:08:31;;;;;;;3.38;2.10;;;27.40;30.30;;;;;;5025401;28;20069;-64
2023/06/13 02:10:58;;;;;;;2.10;1.90;;;27.30;30.20;;;;;;5024611;28;20132;-64
2023/06/13 02:13:24;;;;;;;2.33;2.10;;;27.30;30.20;;;;;;5008236;28;20063;-63
2023/06/13 02:15:50;;;;;;;2.80;2.15;;;27.30;30.20;;;;;;5026911;28;20411;-64
2023/06/13 02:18:16;;;;;;;3.58;2.10;;;27.30;30.20;;;;;;5048233;28;20064;-65
2023/06/13 02:20:42;;;;;;;3.25;2.20;;;27.30;30.30;;;;;;5044564;28;20440;-65
2023/06/13 02:23:09;;;;;;;2.80;2.17;;;27.30;30.30;;;;;;5044745;28;20112;-61
2023/06/13 02:25:35;;;;;;;2.53;1.75;;;27.30;30.30;;;;;;5044273;28;20096;-64
2023/06/13 02:28:01;;;;;;;2.88;2.00;;;27.30;30.30;;;;;;5047349;28;20298;-62
2023/06/13 02:30:27;;;;;;;2.72;2.00;;;27.30;30.40;;;;;;5048501;28;20293;-62
2023/06/13 02:32:53;;;;;;;2.47;2.28;;;27.30;30.40;;;;;;5045702;28;20133;-64
2023/06/13 02:35:23;;;;;;;3.28;2.10;;;27.20;30.30;;;;;;5012345;28;20090;-61
2023/06/13 02:37:55;;;;;;;3.67;2.22;;;27.20;30.30;;;;;;5025977;28;20085;-63
2023/06/13 02:40:22;;;;;;;3.78;2.50;;;27.20;30.30;;;;;;5019107;28;20037;-66
2023/06/13 02:42:49;;;;;;;2.60;2.33;;;27.20;30.40;;;;;;5051482;28;20057;-64
2023/06/13 02:45:16;;;;;;;4.38;2.53;;;27.20;30.40;;;;;;5033748;28;20044;-62
2023/06/13 02:47:43;;;;;;;4.57;2.53;;;27.20;30.40;;;;;;5045147;28;20194;-62
2023/06/13 02:50:10;;;;;;;2.95;2.35;;;27.20;30.40;;;;;;5053256;28;20404;-65
2023/06/13 02:52:37;;;;;;;3.33;2.40;;;27.20;30.40;;;;;;5053628;28;20017;-63
2023/06/13 02:55:08;;;;;;;3.97;2.50;;;27.20;30.40;;;;;;5033847;28;20051;-63
2023/06/13 02:57:39;;;;;;;2.83;2.30;;;27.10;30.40;;;;;;5018459;28;20036;-64
2023/06/13 03:00:12;;;;;;;2.38;2.10;;;27.10;30.40;;;;;;5053530;28;20307;-66
2023/06/13 03:02:43;;;;;;;2.92;2.50;;;27.10;30.40;;;;;;5035136;28;20331;-62
2023/06/13 03:05:15;;;;;;;3.45;2.33;;;27.10;30.50;;;;;;5035097;28;20337;-65
2023/06/13 03:07:46;;;;;;;2.85;2.47;;;27.10;30.50;;;;;;5049947;28;20033;-64
2023/06/13 03:10:16;;;;;;;3.90;2.50;;;27.10;30.50;;;;;;5018885;28;20052;-65
2023/06/13 03:12:42;;;;;;;2.75;2.33;;;27.10;30.60;;;;;;5011148;28;20142;-66
2023/06/13 03:15:08;;;;;;;3.10;2.35;;;27.10;30.60;;;;;;5047986;28;20066;-65
2023/06/13 03:17:35;;;;;;;2.28;2.08;;;27.00;30.60;;;;;;5022552;28;20504;-65
2023/06/13 03:20:05;;;;;;;3.05;2.38;;;27.10;30.60;;;;;;5024413;28;20101;-64
2023/06/13 03:22:33;;;;;;;2.70;2.25;;;27.00;30.60;;;;;;5021866;28;20109;-64
2023/06/13 03:25:04;;;;;;;3.67;2.00;;;27.00;30.60;;;;;;5028925;28;20017;-64
2023/06/13 03:27:32;;;;;;;2.38;2.08;;;27.00;30.60;;;;;;5028151;28;20476;-66
2023/06/13 03:29:58;;;;;;;4.75;2.25;;;27.00;30.60;;;;;;5025198;28;20026;-63
2023/06/13 03:32:24;;;;;;;2.75;2.53;;;27.00;30.60;;;;;;5025069;28;20095;-67
2023/06/13 03:34:52;;;;;;;2.72;2.03;;;27.00;30.60;;;;;;5024757;28;20412;-65
2023/06/13 03:37:18;;;;;;;2.47;2.28;;;26.90;30.60;;;;;;5028491;28;20309;-65
2023/06/13 03:39:44;;;;;;;3.67;2.80;;;27.00;30.70;;;;;;5046245;28;20129;-66
2023/06/13 03:42:11;;;;;;;3.00;2.53;;;27.00;30.70;;;;;;5010994;28;20119;-65
2023/06/13 03:44:37;;;;;;;3.22;2.00;;;27.00;30.70;;;;;;5028722;28;20451;-64
2023/06/13 03:47:04;;;;;;;4.00;2.08;;;26.90;30.60;;;;;;5042455;28;20120;-63
2023/06/13 03:49:30;;;;;;;3.05;2.58;;;26.90;30.70;;;;;;5005909;28;20028;-67
2023/06/13 03:51:56;;;;;;;2.33;2.10;;;26.90;30.70;;;;;;5043857;28;20041;-65
2023/06/13 03:54:22;;;;;;;2.97;2.42;;;26.90;30.70;;;;;;5043111;28;20170;-63
2023/06/13 03:56:48;;;;;;;2.58;2.20;;;26.90;30.70;;;;;;5040518;28;20100;-65
2023/06/13 03:59:15;;;;;;;3.05;2.20;;;26.90;30.70;;;;;;5022338;28;20024;-64
2023/06/13 04:01:41;;;;;;;2.40;2.05;;;26.90;30.70;;;;;;5048904;28;20328;-65
2023/06/13 04:04:08;;;;;;;4.25;2.53;;;26.90;30.80;;;;;;5008315;28;20036;-64
2023/06/13 04:06:37;;;;;;;2.83;2.17;;;26.90;30.70;;;;;;5040438;28;20163;-62
2023/06/13 04:09:06;;;;;;;3.22;2.47;;;26.90;30.70;;;;;;5025160;28;20045;-66
2023/06/13 04:11:33;;;;;;;2.78;2.22;;;26.90;30.70;;;;;;5046433;28;20080;-64
2023/06/13 04:14:01;;;;;;;4.53;2.38;;;26.90;30.70;;;;;;5051474;28;20428;-64
2023/06/13 04:16:27;;;;;;;2.47;2.10;;;26.90;30.70;;;;;;5032455;28;20172;-64
2023/06/13 04:18:56;;;;;;;3.05;2.47;;;26.90;30.70;;;;;;5032281;28;20044;-64
2023/06/13 04:21:25;;;;;;;2.78;2.47;;;26.90;30.70;;;;;;5032829;28;20380;-64
2023/06/13 04:23:53;;;;;;;2.70;1.95;;;26.90;31.40;;;;;;5033553;28;20070;-64
2023/06/13 04:26:20;;;;;;;3.42;2.05;;;26.90;30.80;;;;;;5017024;28;20025;-65
2023/06/13 04:28:50;;;;;;;2.55;2.15;;;26.90;30.80;;;;;;5049558;28;20102;-65
2023/06/13 04:31:17;;;;;;;2.53;2.10;;;26.90;30.80;;;;;;5016101;28;20034;-63
2023/06/13 04:33:45;;;;;;;3.17;2.20;;;26.90;30.80;;;;;;5051524;28;20062;-62
2023/06/13 04:36:12;;;;;;;3.28;2.10;;;26.90;30.80;;;;;;5033402;28;20178;-63
2023/06/13 04:38:39;;;;;;;2.47;2.08;;;26.80;30.70;;;;;;5033479;28;20032;-63
2023/06/13 04:41:10;;;;;;;2.47;2.08;;;26.80;30.70;;;;;;5030335;28;20058;-63
2023/06/13 04:43:38;;;;;;;2.40;1.98;;;26.80;30.80;;;;;;5050857;28;20064;-65
2023/06/13 04:46:04;;;;;;;2.45;1.92;;;26.90;30.90;;;;;;5023963;28;20029;-65
2023/06/13 04:48:30;;;;;;;2.83;2.20;;;26.80;30.80;;;;;;5042481;28;20124;-64
2023/06/13 04:50:58;;;;;;;2.53;1.90;;;26.80;30.80;;;;;;5044758;28;20029;-66
2023/06/13 04:53:26;;;;;;;2.50;2.15;;;26.80;30.80;;;;;;5045911;28;20037;-63
2023/06/13 04:55:52;;;;;;;3.00;2.20;;;26.80;30.80;;;;;;5040976;28;20037;-66
2023/06/13 04:58:18;;;;;;;2.75;2.35;;;26.80;30.90;;;;;;5040717;28;20109;-66
2023/06/13 05:00:48;;;;;;;3.10;2.10;;;26.80;30.90;;;;;;5028792;28;20081;-65
2023/06/13 05:03:17;;;;;;;2.63;2.17;;;26.80;30.90;;;;;;5048641;28;20028;-64
2023/06/13 05:05:46;;;;;;;2.63;2.00;;;26.80;30.90;;;;;;5041417;28;20021;-67
2023/06/13 05:08:14;;;;;;;2.72;2.25;;;26.80;30.90;;;;;;5038622;28;20085;-62
2023/06/13 05:10:43;;;;;;;5.53;2.50;;;26.80;30.90;;;;;;5023706;28;20302;-62
2023/06/13 05:13:10;;;;;;;3.08;2.22;;;26.80;30.90;;;;;;5041650;28;20147;-65
2023/06/13 05:15:37;;;;;;;2.85;2.25;;;26.80;30.90;;;;;;5041026;28;20599;-62
2023/06/13 05:18:06;;;;;;;3.08;2.58;;;26.80;30.90;;;;;;5021727;28;20041;-66
2023/06/13 05:20:33;;;;;;;3.90;2.60;;;26.80;31.00;;;;;;5042107;28;20053;-61
2023/06/13 05:23:01;;;;;;;3.72;2.25;;;26.80;31.00;;;;;;5044757;28;20386;-62
2023/06/13 05:25:28;;;;;;;3.03;2.20;;;26.80;31.00;;;;;;5039019;28;20098;-64
2023/06/13 05:27:54;;;;;;;3.15;2.63;;;26.70;31.60;;;;;;5041057;28;20040;-64
2023/06/13 05:30:21;;;;;;;6.32;2.40;;;26.80;31.00;;;;;;5041157;28;20384;-61
2023/06/13 05:32:47;;;;;;;2.53;2.30;;;26.70;31.00;;;;;;5040815;28;20041;-62
2023/06/13 05:35:12;;;;;;;3.72;2.38;;;26.70;31.10;;;;;;5038579;28;20091;-62
2023/06/13 05:37:38;;;;;;;2.60;2.40;;;26.70;31.10;;;;;;5041069;28;20453;-62
2023/06/13 05:40:10;;;;;;;3.95;2.80;;;26.80;31.20;;;;;;5024593;28;20028;-64
2023/06/13 05:42:37;;;;;;;2.28;2.05;;;26.70;31.10;;;;;;5022037;28;20053;-64
2023/06/13 05:45:05;;;;;;;3.67;2.20;;;26.70;31.20;;;;;;5043987;28;20158;-62
2023/06/13 05:47:31;;;;;;;3.10;2.47;;;26.70;31.20;;;;;;5031444;28;20429;-62
2023/06/13 05:49:58;;;;;;;3.35;2.40;;;26.70;31.20;;;;;;5050351;28;20071;-64
2023/06/13 05:52:25;;;;;;;3.83;2.40;;;26.70;31.30;;;;;;5035995;28;20052;-61
2023/06/13 05:54:51;;;;;;;2.60;2.30;;;26.70;31.30;;;;;;5025078;28;20117;-63
2023/06/13 05:57:17;;;;;;;4.32;2.40;;;26.80;31.40;;;;;;5048909;28;20047;-64
2023/06/13 05:59:44;;;;;;;4.65;2.40;;;26.70;31.40;;;;;;5049263;28;20041;-63
2023/06/13 06:02:11;;;;;;;3.22;2.60;;;26.70;31.50;;;;;;5032408;28;20037;-62
2023/06/13 06:04:38;;;;;;;3.70;2.30;;;26.70;31.60;;;;;;5035527;28;20492;-64
2023/06/13 06:07:05;;;;;;;2.90;2.60;;;26.70;31.60;;;;;;5033420;28;20068;-63
2023/06/13 06:09:32;;;;;;;2.63;2.40;;;26.70;31.60;;;;;;5049937;28;20090;-61
2023/06/13 06:11:58;;;;;;;2.90;2.38;;;26.70;31.70;;;;;;5031972;28;20029;-66
2023/06/13 06:14:24;;;;;;;3.03;2.53;;;26.70;31.80;;;;;;5049576;28;20037;-62
2023/06/13 06:16:50;;;;;;;2.70;2.33;;;26.70;31.80;;;;;;5012605;28;20014;-67
2023/06/13 06:19:16;;;;;;;3.17;2.45;;;26.70;31.80;;;;;;5041099;28;20033;-63
2023/06/13 06:21:42;;;;;;;5.60;2.45;;;26.70;31.90;;;;;;5043907;28;20021;-65
2023/06/13 06:24:08;;;;;;;3.03;2.25;;;26.70;32.00;;;;;;5039611;28;20050;-62
2023/06/13 06:26:34;;;;;;;3.28;2.22;;;26.70;32.10;;;;;;5037061;28;20340;-63
2023/06/13 06:29:00;;;;;;;2.63;2.20;;;26.70;32.20;;;;;;5040733;28;20101;-64
2023/06/13 06:31:27;;;;;;;2.10;1.90;;;26.70;32.20;;;;;;5038020;28;20068;-64
2023/06/13 06:33:53;;;;;;;3.35;2.63;;;26.70;32.20;;;;;;5037951;28;20041;-65
2023/06/13 06:36:22;;;;;;;2.35;1.98;;;26.80;32.30;;;;;;5029513;28;20095;-62
2023/06/13 06:38:49;;;;;;;3.00;2.25;;;26.70;32.30;;;;;;5035630;28;20052;-64
2023/06/13 06:41:16;;;;;;;2.80;2.30;;;26.70;32.40;;;;;;5033529;28;20079;-62
2023/06/13 06:43:42;;;;;;;4.95;2.28;;;26.80;32.50;;;;;;5008473;28;20161;-63
2023/06/13 06:46:10;;;;;;;5.25;2.63;;;26.80;32.60;;;;;;5007196;28;20018;-62
2023/06/13 06:48:36;;;;;;;3.22;2.42;;;26.80;32.60;;;;;;5001414;28;20086;-66
2023/06/13 06:51:02;;;;;;;2.97;2.38;;;26.70;32.60;;;;;;5007570;28;20529;-65
2023/06/13 06:53:29;;;;;;;4.35;2.70;;;26.80;32.70;;;;;;5012386;28;20042;-66
2023/06/13 06:55:55;;;;;;;5.28;2.53;;;26.80;32.80;;;;;;5006278;28;20045;-66
2023/06/13 06:58:21;;;;;;;3.00;2.47;;;26.80;32.80;;;;;;5002604;28;20106;-65
2023/06/13 07:00:47;;;;;;;2.90;2.47;;;26.80;32.90;;;;;;4992540;28;20049;-67
2023/06/13 07:03:13;;;;;;;3.20;2.38;;;26.80;33.10;;;;;;5003119;28;20432;-62
2023/06/13 07:05:39;;;;;;;3.15;2.28;;;26.80;33.10;;;;;;4999775;28;20353;-63
2023/06/13 07:08:05;;;;;;;2.92;2.35;;;26.80;33.20;;;;;;4986785;28;20049;-61
2023/06/13 07:10:32;;;;;;;5.00;2.80;;;26.80;33.40;;;;;;4994729;28;20469;-64
2023/06/13 07:12:59;;;;;;;2.97;2.40;;;26.80;33.40;;;;;;5001996;28;20065;-61
2023/06/13 07:15:25;;;;;;;4.05;2.70;;;26.80;33.50;;;;;;5002981;28;20026;-61
2023/06/13 07:17:51;;;;;;;3.50;2.78;;;26.80;33.50;;;;;;5007985;28;20073;-63
2023/06/13 07:20:21;;;;;;;4.18;2.70;;;26.80;33.60;;;;;;5000504;28;20030;-62
2023/06/13 07:22:47;;;;;;;3.25;2.80;;;26.90;33.70;;;;;;5000690;28;20053;-61
2023/06/13 07:25:13;;;;;;;6.03;2.83;;;26.90;33.70;;;;;;5000450;28;20277;-63
2023/06/13 07:27:39;;;;;;;3.20;2.50;;;26.90;33.70;;;;;;5005792;28;20082;-65
2023/06/13 07:30:05;;;;;;;4.35;3.25;;;26.90;33.70;;;;;;5007181;28;20032;-62
2023/06/13 07:32:31;;;;;;;3.97;3.00;;;26.80;33.70;;;;;;5007323;28;20075;-62
2023/06/13 07:34:57;;;;;;;3.25;2.20;;;26.90;33.80;;;;;;5002605;28;20391;-62
2023/06/13 07:37:24;;;;;;;3.28;2.20;;;26.80;33.80;;;;;;5001732;28;20385;-65
2023/06/13 07:39:49;;;;;;;2.95;2.50;;;26.90;33.90;;;;;;5003054;28;20018;-64
2023/06/13 07:42:15;;;;;;;3.88;2.53;;;26.90;33.90;;;;;;5004704;28;20489;-65
2023/06/13 07:44:41;;;;;;;2.30;2.10;;;26.90;34.00;;;;;;5046261;28;20021;-62
2023/06/13 07:47:08;;;;;;;2.63;2.30;;;26.90;34.00;;;;;;5047973;28;20134;-63
2023/06/13 07:49:34;;;;;;;2.80;2.03;;;26.90;34.00;;;;;;5046194;28;20341;-63
2023/06/13 07:52:00;;;;;;;2.83;2.28;;;26.90;34.10;;;;;;5046702;28;20033;-66
2023/06/13 07:54:26;;;;;;;2.65;2.45;;;26.90;34.10;;;;;;5047991;28;20033;-61
2023/06/13 07:56:52;;;;;;;3.25;2.45;;;26.90;34.10;;;;;;5046345;28;20356;-63
2023/06/13 07:59:18;;;;;;;2.83;2.25;;;26.90;34.20;;;;;;5043948;28;20029;-62
2023/06/13 08:01:44;;;;;;;2.67;2.08;;;26.90;34.20;;;;;;5042066;28;20092;-61
2023/06/13 08:04:10;;;;;;;2.55;2.05;;;26.90;34.20;;;;;;5046353;28;20039;-66
2023/06/13 08:06:36;;;;;;;3.10;2.50;;;26.90;34.20;;;;;;5044539;28;20455;-63
2023/06/13 08:09:03;;;;;;;3.25;2.03;;;26.90;34.30;;;;;;5041191;28;20120;-62
2023/06/13 08:11:29;;;;;;;2.88;2.13;;;26.90;34.30;;;;;;5047343;28;20475;-64
2023/06/13 08:13:55;;;;;;;2.75;2.33;;;26.90;34.30;;;;;;5046714;28;20044;-62
2023/06/13 08:16:21;;;;;;;2.88;2.30;;;26.90;34.30;;;;;;5026947;28;21629;-65
2023/06/13 08:18:47;;;;;;;2.95;2.30;;;26.90;34.30;;;;;;5038608;28;20021;-63
2023/06/13 08:21:13;;;;;;;3.58;2.30;;;26.90;34.30;;;;;;5046395;28;20104;-64
2023/06/13 08:23:39;;;;;;;2.35;2.10;;;26.90;34.30;;;;;;5040593;28;20052;-60
2023/06/13 08:26:05;;;;;;;2.40;2.17;;;27.00;34.40;;;;;;5043563;28;20317;-61
2023/06/13 08:28:30;;;;;;;3.00;2.15;;;26.90;34.40;;;;;;5046981;28;20123;-62
2023/06/13 08:30:56;;;;;;;2.22;2.03;;;27.00;34.50;;;;;;5026338;28;20033;-63
2023/06/13 08:33:22;;;;;;;2.67;2.47;;;26.90;34.40;;;;;;5047279;28;20048;-64
2023/06/13 08:35:49;;;;;;;2.35;2.05;;;27.00;34.50;;;;;;5021482;28;20021;-62
2023/06/13 08:38:15;;;;;;;2.97;2.05;;;27.00;34.50;;;;;;5045214;28;20113;-67
2023/06/13 08:40:41;;;;;;;2.03;1.80;;;27.00;34.50;;;;;;5042380;28;20021;-64
2023/06/13 08:43:07;;;;;;;2.20;1.90;;;27.00;34.60;;;;;;5045700;28;20049;-62
2023/06/13 08:45:33;;;;;;;4.07;2.10;;;27.00;34.60;;;;;;5041753;28;20060;-66
2023/06/13 08:48:00;;;;;;;2.92;2.20;;;27.00;34.60;;;;;;5046693;28;20075;-61
2023/06/13 08:50:26;;;;;;;3.05;2.10;;;27.10;34.50;;;;;;5041407;28;20156;-65
2023/06/13 08:52:54;;;;;;;3.50;2.03;;;27.10;34.50;;;;;;5042766;28;20071;-62
2023/06/13 08:55:23;;;;;;;7.88;3.72;;;27.10;34.40;;;;;;5042544;28;20443;-61
2023/06/13 08:57:52;;;;;;;8.63;5.43;;;27.20;34.50;;;;;;5046819;28;20367;-63
2023/06/13 09:00:19;;;;;;;8.82;5.10;;;27.20;34.80;;;;;;5027739;28;20029;-60
2023/06/13 09:02:46;;;;;;;7.20;4.30;;;27.30;35.10;;;;;;5042678;28;20102;-63
2023/06/13 09:05:15;;;;;;;8.27;5.38;;;27.30;35.40;;;;;;5041593;28;20029;-64
2023/06/13 09:07:43;;;;;;;8.63;4.60;;;27.30;35.60;;;;;;5032362;28;20045;-62
2023/06/13 09:10:11;;;;;;;10.88;4.28;;;27.30;35.70;;;;;;5044350;28;20037;-63
2023/06/13 09:12:46;;;;;;;7.95;4.07;;;27.40;35.90;;;;;;5046096;28;20091;-62
2023/06/13 09:15:12;;;;;;;6.88;3.65;;;27.40;35.80;;;;;;5045596;28;20124;-62
2023/06/13 09:17:38;;;;;;;7.57;4.15;;;27.40;35.80;;;;;;5025409;28;20170;-63
2023/06/13 09:20:06;;;;;;;6.72;3.78;;;27.40;35.90;;;;;;5046073;28;20037;-64
2023/06/13 09:22:38;;;;;;;6.38;3.58;;;27.40;35.90;;;;;;5046823;28;20036;-60
2023/06/13 09:25:05;;;;;;;6.93;3.60;;;27.40;35.70;;;;;;5042620;28;20361;-62
2023/06/13 09:27:31;;;;;;;5.15;3.05;;;27.40;35.60;;;;;;5043635;28;20032;-61
2023/06/13 09:30:03;;;;;;;4.43;2.95;;;27.40;35.50;;;;;;5046044;28;21279;-61
2023/06/13 09:32:30;;;;;;;3.92;2.60;;;27.40;35.30;;;;;;5040091;28;20142;-61
2023/06/13 09:34:57;;;;;;;3.58;2.90;;;27.40;34.90;;;;;;5042860;28;20325;-61
2023/06/13 09:37:25;;;;;;;4.80;2.72;;;27.50;35.20;;;;;;5024849;28;20424;-61
2023/06/13 09:39:51;;;;;;;3.47;2.40;;;27.50;34.10;;;;;;5042679;28;20423;-61
2023/06/13 09:42:24;;;;;;;3.88;2.40;;;27.50;33.80;;;;;;5043093;28;20032;-62
2023/06/13 09:44:51;;;;;;;3.97;2.70;;;27.50;33.40;;;;;;5021294;28;20083;-61
2023/06/13 09:47:22;;;;;;;3.20;2.60;;;27.50;33.40;;;;;;5043127;28;20041;-62
2023/06/13 09:49:55;;;;;;;2.95;2.20;;;27.50;33.70;;;;;;5037955;28;20397;-68
2023/06/13 09:52:28;;;;;;;4.15;2.70;;;27.50;33.80;;;;;;5025689;28;20401;-61
2023/06/13 09:54:54;;;;;;;4.20;2.65;;;27.50;33.90;;;;;;5044402;28;20348;-60
2023/06/13 09:57:21;;;;;;;3.40;2.60;;;27.50;34.10;;;;;;5041690;28;20061;-61
2023/06/13 09:59:50;;;;;;;3.60;2.40;;;27.50;34.00;;;;;;5027674;28;20062;-61
2023/06/13 10:02:16;;;;;;;3.10;2.10;;;27.50;33.70;;;;;;5033174;28;20039;-60
2023/06/13 10:04:43;;;;;;;2.65;2.40;;;27.50;33.40;;;;;;5035110;28;20086;-62
2023/06/13 10:07:11;;;;;;;3.60;2.30;;;27.50;33.10;;;;;;5039873;28;20038;-64
2023/06/13 10:09:38;;;;;;;3.03;2.30;;;27.50;33.30;;;;;;5037502;28;20048;-64
2023/06/13 10:12:08;;;;;;;2.80;2.10;;;27.50;33.30;;;;;;5040254;28;20033;-62
2023/06/13 10:14:38;;;;;;;3.00;2.33;;;27.50;32.90;;;;;;5035531;28;20352;-63
2023/06/13 10:17:11;;;;;;;2.28;1.80;;;27.50;32.60;;;;;;5032560;28;20140;-62
2023/06/13 10:19:39;;;;;;;1.88;1.70;;;27.50;32.30;;;;;;5037964;28;20060;-65
2023/06/13 10:22:10;;;;;;;2.40;1.70;;;27.60;32.50;;;;;;5043319;28;20065;-63
2023/06/13 10:24:38;;;;;;;2.63;2.20;;;27.50;32.50;;;;;;5039256;28;20127;-62
2023/06/13 10:27:06;;;;;;;2.80;2.40;;;27.50;32.30;;;;;;5040821;28;20043;-63
2023/06/13 10:29:56;;;;;;;5.45;1.90;;;27.60;32.10;;;;;;5042217;28;20045;-61
2023/06/13 10:33:18;;;;;;;2.90;1.95;;;27.60;31.90;;;;;;5044716;28;20071;-60
2023/06/13 10:35:53;;;;;;;2.78;2.00;;;27.60;32.00;;;;;;4959210;28;20039;-63
2023/06/13 10:39:03;;;;;;;3.03;2.20;;;27.60;31.90;;;;;;4961906;28;20035;-61
2023/06/13 10:41:35;;;;;;;2.40;2.10;;;27.60;31.70;;;;;;5015175;28;20416;-61
2023/06/13 10:44:14;;;;;;;2.42;2.22;;;27.60;31.60;;;;;;5036863;28;20313;-61
2023/06/13 10:46:41;;;;;;;1.92;1.70;;;27.60;31.70;;;;;;5039842;28;20047;-63
2023/06/13 10:49:16;;;;;;;3.03;1.85;;;27.70;31.80;;;;;;5043176;28;20064;-61
2023/06/13 10:51:44;;;;;;;2.42;1.98;;;27.70;32.00;;;;;;5042722;28;20153;-61
2023/06/13 10:54:12;;;;;;;2.30;2.10;;;27.70;31.90;;;;;;5042171;28;20044;-60
2023/06/13 10:56:41;;;;;;;2.55;2.00;;;27.70;31.70;;;;;;5044045;28;20025;-62
2023/06/13 10:59:13;;;;;;;2.20;2.00;;;27.70;31.60;;;;;;5043784;28;20182;-62
2023/06/13 11:01:40;;;;;;;2.40;1.90;;;27.80;31.70;;;;;;5042151;28;20033;-63
2023/06/13 11:04:09;;;;;;;3.70;2.08;;;27.70;31.60;;;;;;5039253;28;20116;-63
2023/06/13 11:06:36;;;;;;;3.05;2.10;;;27.80;31.50;;;;;;5038695;28;20064;-63
2023/06/13 11:09:21;;;;;;;2.55;2.30;;;27.80;31.40;;;;;;5040839;28;20224;-62
2023/06/13 11:11:51;;;;;;;2.25;1.80;;;27.80;31.30;;;;;;5040411;28;20112;-64
2023/06/13 11:14:31;;;;;;;2.63;1.98;;;27.80;31.60;;;;;;5042639;28;20037;-65
2023/06/13 11:16:57;;;;;;;2.85;1.88;;;27.80;31.90;;;;;;5024001;28;21810;-66
2023/06/13 11:19:27;;;;;;;2.30;2.03;;;27.80;32.10;;;;;;5042980;28;20157;-65
2023/06/13 11:21:59;;;;;;;1.80;1.70;;;27.90;32.20;;;;;;5042897;28;20071;-65
2023/06/13 11:24:32;;;;;;;2.88;2.00;;;28.00;32.30;;;;;;5039685;28;20467;-65
2023/06/13 11:27:00;;;;;;;2.00;1.80;;;28.10;32.50;;;;;;5026429;28;20033;-67
2023/06/13 11:29:30;;;;;;;1.92;1.75;;;28.10;32.20;;;;;;5041573;28;20033;-66
2023/06/13 11:31:56;;;;;;;2.35;1.90;;;28.30;32.30;;;;;;5022859;28;20294;-65
2023/06/13 11:34:31;;;;;;;2.25;1.73;;;28.30;32.30;;;;;;5044625;28;20120;-65
2023/06/13 11:37:07;;;;;;;2.30;1.85;;;28.50;32.30;;;;;;5038177;28;20037;-64
2023/06/13 11:39:40;;;;;;;2.33;1.83;;;28.60;32.30;;;;;;5040925;28;20032;-64
2023/06/13 11:42:06;;;;;;;2.10;1.85;;;28.70;32.40;;;;;;5044387;28;20108;-67
2023/06/13 11:44:34;;;;;;;2.60;1.63;;;28.80;32.30;;;;;;5018941;28;20096;-65
2023/06/13 11:47:00;;;;;;;2.10;1.90;;;28.80;32.20;;;;;;5040002;28;20071;-68
2023/06/13 11:49:26;;;;;;;2.35;1.85;;;28.90;32.10;;;;;;5040109;28;20057;-61
2023/06/13 11:51:51;;;;;;;5.15;2.10;;;29.00;31.90;;;;;;5040960;28;20025;-61
2023/06/13 11:54:17;;;;;;;11.27;2.58;;;29.10;31.80;;;;;;5044858;28;20021;-62
2023/06/13 11:56:53;;;;;;;8.52;3.20;;;29.20;32.00;;;;;;5046002;28;20033;-63
2023/06/13 11:59:21;;;;;;;7.22;2.30;;;29.20;32.00;;;;;;5044771;28;20024;-60
2023/06/13 12:01:48;;;;;;;5.60;2.25;;;29.20;31.70;;;;;;5045850;28;20021;-59
2023/06/13 12:04:15;;;;;;;3.25;2.05;;;29.20;31.50;;;;;;5030079;28;20028;-60
2023/06/13 12:06:42;;;;;;;5.65;2.60;;;29.20;31.30;;;;;;5045460;28;20111;-61
2023/06/13 12:09:09;;;;;;;6.80;2.22;;;29.20;31.20;;;;;;5040784;28;20049;-63
2023/06/13 12:11:34;;;;;;;4.10;2.38;;;29.20;31.00;;;;;;5045357;28;20025;-62
2023/06/13 12:14:02;;;;;;;3.85;2.10;;;29.20;30.80;;;;;;5046558;28;20044;-61
2023/06/13 12:16:29;;;;;;;2.63;2.00;;;29.20;30.70;;;;;;5043568;28;20039;-63
2023/06/13 12:18:56;;;;;;;3.17;2.22;;;29.10;30.50;;;;;;5042747;28;20040;-60
2023/06/13 12:21:28;;;;;;;4.20;2.30;;;29.10;30.50;;;;;;5047381;28;20029;-60
2023/06/13 12:23:56;;;;;;;3.00;1.85;;;29.10;30.40;;;;;;5042619;28;20052;-61
2023/06/13 12:26:22;;;;;;;1.90;1.70;;;29.00;30.20;;;;;;5041968;28;20049;-62
2023/06/13 12:28:49;;;;;;;3.75;1.95;;;29.00;30.20;;;;;;5045422;28;20037;-61
2023/06/13 12:31:15;;;;;;;2.80;1.98;;;29.00;30.30;;;;;;5028476;28;20037;-63
2023/06/13 12:33:42;;;;;;;3.80;2.22;;;29.00;30.40;;;;;;5045034;28;20025;-61
2023/06/13 12:36:09;;;;;;;3.17;2.33;;;29.00;30.50;;;;;;5047360;28;20094;-58
2023/06/13 12:38:35;;;;;;;3.80;2.28;;;28.90;30.70;;;;;;5035058;28;20032;-63
2023/06/13 12:41:13;;;;;;;3.08;2.40;;;28.90;31.20;;;;;;5022365;28;20029;-63
2023/06/13 12:43:43;;;;;;;3.10;2.35;;;28.80;31.50;;;;;;5043830;28;20055;-64
2023/06/13 12:46:09;;;;;;;3.22;2.22;;;28.80;31.80;;;;;;5026185;28;20022;-67
2023/06/13 12:48:38;;;;;;;3.00;2.30;;;28.70;32.10;;;;;;5043479;28;20410;-64
2023/06/13 12:51:07;;;;;;;3.38;2.45;;;28.70;32.50;;;;;;5016553;28;20128;-68
2023/06/13 12:53:33;;;;;;;5.85;2.42;;;28.70;32.90;;;;;;5045848;28;20424;-65